sensor_id;sensor_type;location;lat;lon;timestamp;P1;durP1;ratioP1;P2;durP2;ratioP2
10605;SDS011;5350;42.698;23.148;2023-05-14T00:01:15;4.53;;;3.70;;
10605;SDS011;5350;42.698;23.148;2023-05-14T00:03:42;6.15;;;3.65;;
10605;SDS011;5350;42.698;23.148;2023-05-14T00:06:08;4.13;;;3.50;;
10605;SDS011;5350;42.698;23.148;2023-05-14T00:08:35;3.63;;;3.30;;
10605;SDS011;5350;42.698;23.148;2023-05-14T00:11:02;7.50;;;4.10;;
10605;SDS011;5350;42.698;23.148;2023-05-14T00:13:29;4.20;;;3.50;;
10605;SDS011;5350;42.698;23.148;2023-05-14T00:15:56;5.53;;;3.70;;
10605;SDS011;5350;42.698;23.148;2023-05-14T00:18:24;3.47;;;3.17;;
10605;SDS011;5350;42.698;23.148;2023-05-14T00:20:51;4.28;;;3.30;;
10605;SDS011;5350;42.698;23.148;2023-05-14T00:23:19;4.32;;;3.92;;
10605;SDS011;5350;42.698;23.148;2023-05-14T00:25:45;5.43;;;4.30;;
10605;SDS011;5350;42.698;23.148;2023-05-14T00:28:12;6.60;;;4.72;;
10605;SDS011;5350;42.698;23.148;2023-05-14T00:30:39;4.45;;;3.70;;
10605;SDS011;5350;42.698;23.148;2023-05-14T00:33:06;4.07;;;3.55;;
10605;SDS011;5350;42.698;23.148;2023-05-14T00:35:34;7.07;;;4.40;;
10605;SDS011;5350;42.698;23.148;2023-05-14T00:38:01;7.20;;;3.90;;
10605;SDS011;5350;42.698;23.148;2023-05-14T00:40:28;7.72;;;4.15;;
10605;SDS011;5350;42.698;23.148;2023-05-14T00:42:55;5.55;;;4.60;;
10605;SDS011;5350;42.698;23.148;2023-05-14T00:45:22;7.00;;;4.70;;
10605;SDS011;5350;42.698;23.148;2023-05-14T00:47:49;6.87;;;4.97;;
10605;SDS011;5350;42.698;23.148;2023-05-14T00:50:15;6.10;;;4.90;;
10605;SDS011;5350;42.698;23.148;2023-05-14T00:52:45;6.23;;;4.33;;
10605;SDS011;5350;42.698;23.148;2023-05-14T00:55:12;4.80;;;4.00;;
10605;SDS011;5350;42.698;23.148;2023-05-14T00:57:41;7.63;;;4.07;;
10605;SDS011;5350;42.698;23.148;2023-05-14T01:00:08;7.07;;;4.27;;
10605;SDS011;5350;42.698;23.148;2023-05-14T01:02:36;5.73;;;4.00;;
10605;SDS011;5350;42.698;23.148;2023-05-14T01:05:03;4.83;;;3.30;;
10605;SDS011;5350;42.698;23.148;2023-05-14T01:07:32;3.87;;;3.53;;
10605;SDS011;5350;42.698;23.148;2023-05-14T01:10:10;4.80;;;4.00;;
10605;SDS011;5350;42.698;23.148;2023-05-14T01:12:42;4.73;;;3.50;;
10605;SDS011;5350;42.698;23.148;2023-05-14T01:15:17;5.40;;;3.80;;
10605;SDS011;5350;42.698;23.148;2023-05-14T01:17:49;4.40;;;3.30;;
10605;SDS011;5350;42.698;23.148;2023-05-14T01:20:19;5.73;;;3.63;;
10605;SDS011;5350;42.698;23.148;2023-05-14T01:22:47;4.67;;;3.70;;
10605;SDS011;5350;42.698;23.148;2023-05-14T01:25:14;4.13;;;3.43;;
10605;SDS011;5350;42.698;23.148;2023-05-14T01:27:41;5.93;;;4.00;;
10605;SDS011;5350;42.698;23.148;2023-05-14T01:30:16;6.20;;;4.17;;
10605;SDS011;5350;42.698;23.148;2023-05-14T01:32:47;4.10;;;3.53;;
10605;SDS011;5350;42.698;23.148;2023-05-14T01:35:19;5.90;;;4.23;;
10605;SDS011;5350;42.698;23.148;2023-05-14T01:37:50;5.20;;;4.10;;
10605;SDS011;5350;42.698;23.148;2023-05-14T01:40:18;6.77;;;4.63;;
10605;SDS011;5350;42.698;23.148;2023-05-14T01:42:45;8.47;;;3.83;;
10605;SDS011;5350;42.698;23.148;2023-05-14T01:45:12;7.27;;;4.20;;
10605;SDS011;5350;42.698;23.148;2023-05-14T01:47:40;6.83;;;6.20;;
10605;SDS011;5350;42.698;23.148;2023-05-14T01:50:07;6.40;;;4.17;;
10605;SDS011;5350;42.698;23.148;2023-05-14T01:52:34;5.97;;;4.07;;
10605;SDS011;5350;42.698;23.148;2023-05-14T01:55:03;8.60;;;4.33;;
10605;SDS011;5350;42.698;23.148;2023-05-14T01:57:30;5.60;;;4.10;;
10605;SDS011;5350;42.698;23.148;2023-05-14T01:59:57;8.87;;;4.00;;
10605;SDS011;5350;42.698;23.148;2023-05-14T02:02:23;7.70;;;3.67;;
10605;SDS011;5350;42.698;23.148;2023-05-14T02:04:50;4.77;;;3.70;;
10605;SDS011;5350;42.698;23.148;2023-05-14T02:07:17;5.83;;;4.20;;
10605;SDS011;5350;42.698;23.148;2023-05-14T02:09:44;5.17;;;4.07;;
10605;SDS011;5350;42.698;23.148;2023-05-14T02:12:12;3.80;;;3.40;;
10605;SDS011;5350;42.698;23.148;2023-05-14T02:14:39;4.07;;;3.60;;
10605;SDS011;5350;42.698;23.148;2023-05-14T02:17:05;5.13;;;3.57;;
10605;SDS011;5350;42.698;23.148;2023-05-14T02:19:32;4.10;;;3.70;;
10605;SDS011;5350;42.698;23.148;2023-05-14T02:21:59;5.97;;;4.30;;
10605;SDS011;5350;42.698;23.148;2023-05-14T02:24:26;5.07;;;4.07;;
10605;SDS011;5350;42.698;23.148;2023-05-14T02:26:52;6.97;;;4.57;;
10605;SDS011;5350;42.698;23.148;2023-05-14T02:29:21;5.20;;;4.70;;
10605;SDS011;5350;42.698;23.148;2023-05-14T02:31:47;5.23;;;4.50;;
10605;SDS011;5350;42.698;23.148;2023-05-14T02:34:14;5.10;;;4.60;;
10605;SDS011;5350;42.698;23.148;2023-05-14T02:36:41;5.67;;;4.87;;
10605;SDS011;5350;42.698;23.148;2023-05-14T02:39:08;5.57;;;4.53;;
10605;SDS011;5350;42.698;23.148;2023-05-14T02:41:34;5.00;;;4.40;;
10605;SDS011;5350;42.698;23.148;2023-05-14T02:44:01;5.63;;;4.73;;
10605;SDS011;5350;42.698;23.148;2023-05-14T02:46:30;5.00;;;4.50;;
10605;SDS011;5350;42.698;23.148;2023-05-14T02:48:57;6.20;;;4.70;;
10605;SDS011;5350;42.698;23.148;2023-05-14T02:51:24;6.40;;;4.57;;
10605;SDS011;5350;42.698;23.148;2023-05-14T02:53:51;6.53;;;4.77;;
10605;SDS011;5350;42.698;23.148;2023-05-14T02:56:18;5.97;;;5.33;;
10605;SDS011;5350;42.698;23.148;2023-05-14T02:58:45;4.90;;;4.33;;
10605;SDS011;5350;42.698;23.148;2023-05-14T03:01:11;4.90;;;4.40;;
10605;SDS011;5350;42.698;23.148;2023-05-14T03:03:40;4.20;;;3.90;;
10605;SDS011;5350;42.698;23.148;2023-05-14T03:06:07;4.60;;;4.10;;
10605;SDS011;5350;42.698;23.148;2023-05-14T03:08:34;5.37;;;4.70;;
10605;SDS011;5350;42.698;23.148;2023-05-14T03:11:00;7.10;;;4.73;;
10605;SDS011;5350;42.698;23.148;2023-05-14T03:13:27;4.90;;;4.40;;
10605;SDS011;5350;42.698;23.148;2023-05-14T03:15:54;5.27;;;4.43;;
10605;SDS011;5350;42.698;23.148;2023-05-14T03:18:21;6.10;;;4.50;;
10605;SDS011;5350;42.698;23.148;2023-05-14T03:20:49;4.47;;;4.07;;
10605;SDS011;5350;42.698;23.148;2023-05-14T03:23:16;5.13;;;4.40;;
10605;SDS011;5350;42.698;23.148;2023-05-14T03:25:42;5.50;;;4.33;;
10605;SDS011;5350;42.698;23.148;2023-05-14T03:28:09;6.87;;;4.10;;
10605;SDS011;5350;42.698;23.148;2023-05-14T03:30:36;5.83;;;4.30;;
10605;SDS011;5350;42.698;23.148;2023-05-14T03:33:03;4.63;;;4.23;;
10605;SDS011;5350;42.698;23.148;2023-05-14T03:35:29;5.10;;;4.27;;
10605;SDS011;5350;42.698;23.148;2023-05-14T03:37:58;5.27;;;4.73;;
10605;SDS011;5350;42.698;23.148;2023-05-14T03:40:24;6.67;;;4.93;;
10605;SDS011;5350;42.698;23.148;2023-05-14T03:42:51;5.73;;;5.00;;
10605;SDS011;5350;42.698;23.148;2023-05-14T03:45:18;4.70;;;4.30;;
10605;SDS011;5350;42.698;23.148;2023-05-14T03:47:45;6.90;;;4.97;;
10605;SDS011;5350;42.698;23.148;2023-05-14T03:50:11;5.03;;;4.30;;
10605;SDS011;5350;42.698;23.148;2023-05-14T03:52:38;5.87;;;5.00;;
10605;SDS011;5350;42.698;23.148;2023-05-14T03:55:07;6.30;;;4.83;;
10605;SDS011;5350;42.698;23.148;2023-05-14T03:57:34;5.47;;;4.97;;
10605;SDS011;5350;42.698;23.148;2023-05-14T04:00:02;6.53;;;4.40;;
10605;SDS011;5350;42.698;23.148;2023-05-14T04:02:28;7.07;;;4.70;;
10605;SDS011;5350;42.698;23.148;2023-05-14T04:04:55;7.23;;;4.30;;
10605;SDS011;5350;42.698;23.148;2023-05-14T04:07:22;5.53;;;4.73;;
10605;SDS011;5350;42.698;23.148;2023-05-14T04:09:49;5.50;;;4.50;;
10605;SDS011;5350;42.698;23.148;2023-05-14T04:12:17;5.10;;;4.70;;
10605;SDS011;5350;42.698;23.148;2023-05-14T04:14:44;4.57;;;4.17;;
10605;SDS011;5350;42.698;23.148;2023-05-14T04:17:10;6.30;;;4.40;;
10605;SDS011;5350;42.698;23.148;2023-05-14T04:19:37;4.97;;;4.50;;
10605;SDS011;5350;42.698;23.148;2023-05-14T04:22:04;5.63;;;4.53;;
10605;SDS011;5350;42.698;23.148;2023-05-14T04:24:31;5.17;;;4.33;;
10605;SDS011;5350;42.698;23.148;2023-05-14T04:26:58;4.90;;;4.43;;
10605;SDS011;5350;42.698;23.148;2023-05-14T04:29:26;5.47;;;4.10;;
10605;SDS011;5350;42.698;23.148;2023-05-14T04:31:53;5.20;;;4.50;;
10605;SDS011;5350;42.698;23.148;2023-05-14T04:34:20;4.77;;;4.30;;
10605;SDS011;5350;42.698;23.148;2023-05-14T04:36:46;7.77;;;4.70;;
10605;SDS011;5350;42.698;23.148;2023-05-14T04:39:13;5.50;;;3.97;;
10605;SDS011;5350;42.698;23.148;2023-05-14T04:41:40;5.60;;;3.90;;
10605;SDS011;5350;42.698;23.148;2023-05-14T04:44:06;4.87;;;4.37;;
10605;SDS011;5350;42.698;23.148;2023-05-14T04:46:34;5.07;;;4.33;;
10605;SDS011;5350;42.698;23.148;2023-05-14T04:49:01;5.40;;;4.27;;
10605;SDS011;5350;42.698;23.148;2023-05-14T04:51:28;4.83;;;4.23;;
10605;SDS011;5350;42.698;23.148;2023-05-14T04:53:55;4.60;;;4.20;;
10605;SDS011;5350;42.698;23.148;2023-05-14T04:56:22;6.50;;;4.83;;
10605;SDS011;5350;42.698;23.148;2023-05-14T04:58:49;7.27;;;5.23;;
10605;SDS011;5350;42.698;23.148;2023-05-14T05:01:15;5.77;;;5.20;;
10605;SDS011;5350;42.698;23.148;2023-05-14T05:03:43;5.70;;;4.90;;
10605;SDS011;5350;42.698;23.148;2023-05-14T05:06:10;5.23;;;4.73;;
10605;SDS011;5350;42.698;23.148;2023-05-14T05:08:37;5.40;;;4.40;;
10605;SDS011;5350;42.698;23.148;2023-05-14T05:11:04;6.70;;;4.93;;
10605;SDS011;5350;42.698;23.148;2023-05-14T05:13:30;8.23;;;5.13;;
10605;SDS011;5350;42.698;23.148;2023-05-14T05:15:57;6.57;;;4.80;;
10605;SDS011;5350;42.698;23.148;2023-05-14T05:18:24;4.93;;;4.47;;
10605;SDS011;5350;42.698;23.148;2023-05-14T05:20:52;5.70;;;5.20;;
10605;SDS011;5350;42.698;23.148;2023-05-14T05:23:19;5.47;;;4.83;;
10605;SDS011;5350;42.698;23.148;2023-05-14T05:25:45;7.33;;;6.17;;
10605;SDS011;5350;42.698;23.148;2023-05-14T05:28:12;8.10;;;6.57;;
10605;SDS011;5350;42.698;23.148;2023-05-14T05:30:39;7.50;;;5.90;;
10605;SDS011;5350;42.698;23.148;2023-05-14T05:33:07;6.33;;;5.63;;
10605;SDS011;5350;42.698;23.148;2023-05-14T05:35:33;6.27;;;5.30;;
10605;SDS011;5350;42.698;23.148;2023-05-14T05:38:02;5.80;;;5.17;;
10605;SDS011;5350;42.698;23.148;2023-05-14T05:40:28;6.87;;;5.10;;
10605;SDS011;5350;42.698;23.148;2023-05-14T05:42:55;6.90;;;5.07;;
10605;SDS011;5350;42.698;23.148;2023-05-14T05:45:22;6.63;;;4.60;;
10605;SDS011;5350;42.698;23.148;2023-05-14T05:47:49;6.00;;;4.77;;
10605;SDS011;5350;42.698;23.148;2023-05-14T05:50:15;9.50;;;4.73;;
10605;SDS011;5350;42.698;23.148;2023-05-14T05:52:42;8.43;;;5.17;;
10605;SDS011;5350;42.698;23.148;2023-05-14T05:55:10;6.17;;;5.10;;
10605;SDS011;5350;42.698;23.148;2023-05-14T05:57:37;7.57;;;6.00;;
10605;SDS011;5350;42.698;23.148;2023-05-14T06:00:04;7.23;;;6.40;;
10605;SDS011;5350;42.698;23.148;2023-05-14T06:02:38;6.97;;;6.10;;
10605;SDS011;5350;42.698;23.148;2023-05-14T06:05:05;6.67;;;5.00;;
10605;SDS011;5350;42.698;23.148;2023-05-14T06:07:33;6.77;;;5.53;;
10605;SDS011;5350;42.698;23.148;2023-05-14T06:09:59;6.43;;;5.43;;
10605;SDS011;5350;42.698;23.148;2023-05-14T06:12:28;5.57;;;5.00;;
10605;SDS011;5350;42.698;23.148;2023-05-14T06:14:54;6.13;;;5.53;;
10605;SDS011;5350;42.698;23.148;2023-05-14T06:17:22;6.77;;;5.70;;
10605;SDS011;5350;42.698;23.148;2023-05-14T06:19:49;9.70;;;8.50;;
10605;SDS011;5350;42.698;23.148;2023-05-14T06:22:16;10.47;;;9.40;;
10605;SDS011;5350;42.698;23.148;2023-05-14T06:24:43;6.17;;;5.60;;
10605;SDS011;5350;42.698;23.148;2023-05-14T06:27:10;6.33;;;5.37;;
10605;SDS011;5350;42.698;23.148;2023-05-14T06:29:38;7.23;;;5.60;;
10605;SDS011;5350;42.698;23.148;2023-05-14T06:32:05;6.20;;;5.60;;
10605;SDS011;5350;42.698;23.148;2023-05-14T06:34:33;8.73;;;5.97;;
10605;SDS011;5350;42.698;23.148;2023-05-14T06:36:59;7.87;;;6.20;;
10605;SDS011;5350;42.698;23.148;2023-05-14T06:39:28;7.87;;;7.07;;
10605;SDS011;5350;42.698;23.148;2023-05-14T06:41:54;11.20;;;8.40;;
10605;SDS011;5350;42.698;23.148;2023-05-14T06:44:21;13.83;;;8.77;;
10605;SDS011;5350;42.698;23.148;2023-05-14T06:46:49;21.37;;;14.63;;
10605;SDS011;5350;42.698;23.148;2023-05-14T06:49:16;30.30;;;17.07;;
10605;SDS011;5350;42.698;23.148;2023-05-14T06:51:43;17.90;;;12.70;;
10605;SDS011;5350;42.698;23.148;2023-05-14T06:54:10;18.00;;;12.83;;
10605;SDS011;5350;42.698;23.148;2023-05-14T06:56:37;20.33;;;13.10;;
10605;SDS011;5350;42.698;23.148;2023-05-14T06:59:03;15.63;;;12.60;;
10605;SDS011;5350;42.698;23.148;2023-05-14T07:01:30;11.47;;;10.00;;
10605;SDS011;5350;42.698;23.148;2023-05-14T07:03:58;9.70;;;8.30;;
10605;SDS011;5350;42.698;23.148;2023-05-14T07:06:25;10.10;;;9.10;;
10605;SDS011;5350;42.698;23.148;2023-05-14T07:08:52;13.43;;;7.57;;
10605;SDS011;5350;42.698;23.148;2023-05-14T07:11:19;11.50;;;9.40;;
10605;SDS011;5350;42.698;23.148;2023-05-14T07:13:46;7.93;;;7.23;;
10605;SDS011;5350;42.698;23.148;2023-05-14T07:16:13;9.90;;;8.50;;
10605;SDS011;5350;42.698;23.148;2023-05-14T07:18:39;11.43;;;9.67;;
10605;SDS011;5350;42.698;23.148;2023-05-14T07:21:07;9.63;;;7.67;;
10605;SDS011;5350;42.698;23.148;2023-05-14T07:23:34;8.07;;;5.70;;
10605;SDS011;5350;42.698;23.148;2023-05-14T07:26:02;7.20;;;5.63;;
10605;SDS011;5350;42.698;23.148;2023-05-14T07:28:30;6.97;;;6.07;;
10605;SDS011;5350;42.698;23.148;2023-05-14T07:30:57;6.03;;;5.43;;
10605;SDS011;5350;42.698;23.148;2023-05-14T07:33:23;8.63;;;6.50;;
10605;SDS011;5350;42.698;23.148;2023-05-14T07:35:50;12.87;;;7.50;;
10605;SDS011;5350;42.698;23.148;2023-05-14T07:38:19;8.80;;;6.10;;
10605;SDS011;5350;42.698;23.148;2023-05-14T07:40:46;9.17;;;5.60;;
10605;SDS011;5350;42.698;23.148;2023-05-14T07:43:13;7.53;;;6.60;;
10605;SDS011;5350;42.698;23.148;2023-05-14T07:45:40;7.00;;;6.30;;
10605;SDS011;5350;42.698;23.148;2023-05-14T07:48:07;8.90;;;6.43;;
10605;SDS011;5350;42.698;23.148;2023-05-14T07:50:34;10.00;;;6.60;;
10605;SDS011;5350;42.698;23.148;2023-05-14T07:53:00;8.00;;;6.57;;
10605;SDS011;5350;42.698;23.148;2023-05-14T07:55:29;8.13;;;5.87;;
10605;SDS011;5350;42.698;23.148;2023-05-14T07:57:56;6.70;;;6.10;;
10605;SDS011;5350;42.698;23.148;2023-05-14T08:00:22;10.87;;;8.00;;
10605;SDS011;5350;42.698;23.148;2023-05-14T08:02:49;11.53;;;10.33;;
10605;SDS011;5350;42.698;23.148;2023-05-14T08:05:15;14.37;;;10.20;;
10605;SDS011;5350;42.698;23.148;2023-05-14T08:07:43;14.13;;;10.27;;
10605;SDS011;5350;42.698;23.148;2023-05-14T08:10:10;9.47;;;7.33;;
10605;SDS011;5350;42.698;23.148;2023-05-14T08:12:38;12.83;;;10.47;;
10605;SDS011;5350;42.698;23.148;2023-05-14T08:15:07;9.23;;;7.83;;
10605;SDS011;5350;42.698;23.148;2023-05-14T08:17:34;8.03;;;7.23;;
10605;SDS011;5350;42.698;23.148;2023-05-14T08:20:01;12.97;;;9.13;;
10605;SDS011;5350;42.698;23.148;2023-05-14T08:22:30;11.20;;;8.67;;
10605;SDS011;5350;42.698;23.148;2023-05-14T08:24:57;12.67;;;9.80;;
10605;SDS011;5350;42.698;23.148;2023-05-14T08:27:25;12.77;;;8.33;;
10605;SDS011;5350;42.698;23.148;2023-05-14T08:29:54;7.73;;;6.70;;
10605;SDS011;5350;42.698;23.148;2023-05-14T08:32:20;7.57;;;6.80;;
10605;SDS011;5350;42.698;23.148;2023-05-14T08:34:47;8.97;;;8.00;;
10605;SDS011;5350;42.698;23.148;2023-05-14T08:37:14;8.17;;;7.37;;
10605;SDS011;5350;42.698;23.148;2023-05-14T08:39:40;8.97;;;7.47;;
10605;SDS011;5350;42.698;23.148;2023-05-14T08:42:07;9.47;;;7.30;;
10605;SDS011;5350;42.698;23.148;2023-05-14T08:44:38;9.00;;;6.50;;
10605;SDS011;5350;42.698;23.148;2023-05-14T08:47:12;7.30;;;6.60;;
10605;SDS011;5350;42.698;23.148;2023-05-14T08:49:41;8.43;;;7.40;;
10605;SDS011;5350;42.698;23.148;2023-05-14T08:52:09;8.37;;;7.67;;
10605;SDS011;5350;42.698;23.148;2023-05-14T08:54:36;8.73;;;7.77;;
10605;SDS011;5350;42.698;23.148;2023-05-14T08:57:03;7.47;;;6.77;;
10605;SDS011;5350;42.698;23.148;2023-05-14T08:59:32;9.13;;;8.17;;
10605;SDS011;5350;42.698;23.148;2023-05-14T09:02:00;8.53;;;7.63;;
10605;SDS011;5350;42.698;23.148;2023-05-14T09:04:30;10.77;;;8.73;;
10605;SDS011;5350;42.698;23.148;2023-05-14T09:06:59;14.57;;;10.30;;
10605;SDS011;5350;42.698;23.148;2023-05-14T09:09:28;9.57;;;8.57;;
10605;SDS011;5350;42.698;23.148;2023-05-14T09:11:55;11.57;;;9.60;;
10605;SDS011;5350;42.698;23.148;2023-05-14T09:14:21;10.27;;;9.20;;
10605;SDS011;5350;42.698;23.148;2023-05-14T09:16:48;8.90;;;7.50;;
10605;SDS011;5350;42.698;23.148;2023-05-14T09:19:16;10.33;;;8.23;;
10605;SDS011;5350;42.698;23.148;2023-05-14T09:21:45;9.57;;;8.60;;
10605;SDS011;5350;42.698;23.148;2023-05-14T09:24:17;10.30;;;8.33;;
10605;SDS011;5350;42.698;23.148;2023-05-14T09:26:48;9.53;;;8.63;;
10605;SDS011;5350;42.698;23.148;2023-05-14T09:29:15;9.07;;;8.10;;
10605;SDS011;5350;42.698;23.148;2023-05-14T09:31:42;8.17;;;7.37;;
10605;SDS011;5350;42.698;23.148;2023-05-14T09:34:09;11.13;;;9.87;;
10605;SDS011;5350;42.698;23.148;2023-05-14T09:36:36;12.17;;;9.33;;
10605;SDS011;5350;42.698;23.148;2023-05-14T09:39:04;10.33;;;8.97;;
10605;SDS011;5350;42.698;23.148;2023-05-14T09:41:31;12.80;;;10.10;;
10605;SDS011;5350;42.698;23.148;2023-05-14T09:43:58;21.00;;;13.30;;
10605;SDS011;5350;42.698;23.148;2023-05-14T09:46:26;12.87;;;9.77;;
10605;SDS011;5350;42.698;23.148;2023-05-14T09:48:55;7.60;;;6.57;;
10605;SDS011;5350;42.698;23.148;2023-05-14T09:51:22;12.27;;;9.17;;
10605;SDS011;5350;42.698;23.148;2023-05-14T09:53:50;12.30;;;8.17;;
10605;SDS011;5350;42.698;23.148;2023-05-14T09:56:19;15.13;;;9.60;;
10605;SDS011;5350;42.698;23.148;2023-05-14T09:58:47;13.50;;;11.50;;
10605;SDS011;5350;42.698;23.148;2023-05-14T10:01:13;17.43;;;11.63;;
10605;SDS011;5350;42.698;23.148;2023-05-14T10:03:43;15.23;;;12.10;;
10605;SDS011;5350;42.698;23.148;2023-05-14T10:06:10;30.60;;;16.30;;
10605;SDS011;5350;42.698;23.148;2023-05-14T10:08:40;14.53;;;11.90;;
10605;SDS011;5350;42.698;23.148;2023-05-14T10:11:10;14.63;;;12.03;;
10605;SDS011;5350;42.698;23.148;2023-05-14T10:13:44;25.87;;;16.17;;
10605;SDS011;5350;42.698;23.148;2023-05-14T10:16:15;17.17;;;11.70;;
10605;SDS011;5350;42.698;23.148;2023-05-14T10:18:48;13.90;;;10.73;;
10605;SDS011;5350;42.698;23.148;2023-05-14T10:21:19;10.67;;;9.10;;
10605;SDS011;5350;42.698;23.148;2023-05-14T10:23:47;20.03;;;13.20;;
10605;SDS011;5350;42.698;23.148;2023-05-14T10:26:15;16.80;;;11.53;;
10605;SDS011;5350;42.698;23.148;2023-05-14T10:28:44;14.27;;;11.50;;
10605;SDS011;5350;42.698;23.148;2023-05-14T10:31:11;20.07;;;14.83;;
10605;SDS011;5350;42.698;23.148;2023-05-14T10:33:45;14.80;;;10.10;;
10605;SDS011;5350;42.698;23.148;2023-05-14T10:36:14;15.00;;;10.57;;
10605;SDS011;5350;42.698;23.148;2023-05-14T10:38:42;17.47;;;11.07;;
10605;SDS011;5350;42.698;23.148;2023-05-14T10:41:09;19.70;;;14.80;;
10605;SDS011;5350;42.698;23.148;2023-05-14T10:43:38;19.97;;;16.90;;
10605;SDS011;5350;42.698;23.148;2023-05-14T10:46:07;12.77;;;10.87;;
10605;SDS011;5350;42.698;23.148;2023-05-14T10:48:35;10.40;;;9.23;;
10605;SDS011;5350;42.698;23.148;2023-05-14T10:51:02;12.47;;;10.03;;
10605;SDS011;5350;42.698;23.148;2023-05-14T10:53:33;15.77;;;11.40;;
10605;SDS011;5350;42.698;23.148;2023-05-14T10:56:04;13.93;;;11.90;;
10605;SDS011;5350;42.698;23.148;2023-05-14T10:58:34;9.87;;;8.03;;
10605;SDS011;5350;42.698;23.148;2023-05-14T11:01:02;9.73;;;7.57;;
10605;SDS011;5350;42.698;23.148;2023-05-14T11:03:37;8.90;;;8.07;;
10605;SDS011;5350;42.698;23.148;2023-05-14T11:06:05;10.70;;;9.60;;
10605;SDS011;5350;42.698;23.148;2023-05-14T11:08:32;10.10;;;9.00;;
10605;SDS011;5350;42.698;23.148;2023-05-14T11:10:59;12.90;;;10.07;;
10605;SDS011;5350;42.698;23.148;2023-05-14T11:13:26;10.83;;;9.60;;
10605;SDS011;5350;42.698;23.148;2023-05-14T11:15:53;12.77;;;11.47;;
10605;SDS011;5350;42.698;23.148;2023-05-14T11:18:27;11.60;;;10.50;;
10605;SDS011;5350;42.698;23.148;2023-05-14T11:20:58;12.10;;;10.03;;
10605;SDS011;5350;42.698;23.148;2023-05-14T11:23:25;18.07;;;11.03;;
10605;SDS011;5350;42.698;23.148;2023-05-14T11:25:52;11.93;;;10.70;;
10605;SDS011;5350;42.698;23.148;2023-05-14T11:28:19;14.00;;;10.17;;
10605;SDS011;5350;42.698;23.148;2023-05-14T11:30:47;9.93;;;8.93;;
10605;SDS011;5350;42.698;23.148;2023-05-14T11:33:14;9.83;;;8.87;;
10605;SDS011;5350;42.698;23.148;2023-05-14T11:35:41;10.67;;;9.70;;
10605;SDS011;5350;42.698;23.148;2023-05-14T11:38:13;13.83;;;10.60;;
10605;SDS011;5350;42.698;23.148;2023-05-14T11:40:40;10.57;;;9.67;;
10605;SDS011;5350;42.698;23.148;2023-05-14T11:43:08;11.10;;;10.00;;
10605;SDS011;5350;42.698;23.148;2023-05-14T11:45:35;12.47;;;10.40;;
10605;SDS011;5350;42.698;23.148;2023-05-14T11:48:02;11.60;;;10.50;;
10605;SDS011;5350;42.698;23.148;2023-05-14T11:50:37;10.87;;;9.77;;
10605;SDS011;5350;42.698;23.148;2023-05-14T11:53:04;11.27;;;10.17;;
10605;SDS011;5350;42.698;23.148;2023-05-14T11:55:34;14.07;;;11.20;;
10605;SDS011;5350;42.698;23.148;2023-05-14T11:58:01;14.30;;;12.87;;
10605;SDS011;5350;42.698;23.148;2023-05-14T12:00:27;13.70;;;12.30;;
10605;SDS011;5350;42.698;23.148;2023-05-14T12:02:55;16.03;;;14.13;;
10605;SDS011;5350;42.698;23.148;2023-05-14T12:05:22;12.83;;;11.53;;
10605;SDS011;5350;42.698;23.148;2023-05-14T12:07:48;13.17;;;11.87;;
10605;SDS011;5350;42.698;23.148;2023-05-14T12:10:16;14.10;;;12.60;;
10605;SDS011;5350;42.698;23.148;2023-05-14T12:12:45;12.10;;;10.77;;
10605;SDS011;5350;42.698;23.148;2023-05-14T12:15:14;16.77;;;12.57;;
10605;SDS011;5350;42.698;23.148;2023-05-14T12:17:41;12.47;;;11.30;;
10605;SDS011;5350;42.698;23.148;2023-05-14T12:20:09;14.13;;;12.63;;
10605;SDS011;5350;42.698;23.148;2023-05-14T12:22:36;12.30;;;11.00;;
10605;SDS011;5350;42.698;23.148;2023-05-14T12:25:08;12.20;;;11.00;;
10605;SDS011;5350;42.698;23.148;2023-05-14T12:27:37;11.10;;;10.00;;
10605;SDS011;5350;42.698;23.148;2023-05-14T12:30:06;11.23;;;10.17;;
10605;SDS011;5350;42.698;23.148;2023-05-14T12:32:34;10.30;;;9.30;;
10605;SDS011;5350;42.698;23.148;2023-05-14T12:35:03;11.03;;;9.93;;
10605;SDS011;5350;42.698;23.148;2023-05-14T12:37:31;11.93;;;10.80;;
10605;SDS011;5350;42.698;23.148;2023-05-14T12:39:58;14.17;;;12.77;;
10605;SDS011;5350;42.698;23.148;2023-05-14T12:42:24;13.77;;;12.37;;
10605;SDS011;5350;42.698;23.148;2023-05-14T12:44:51;13.37;;;11.97;;
10605;SDS011;5350;42.698;23.148;2023-05-14T12:47:19;12.67;;;11.57;;
10605;SDS011;5350;42.698;23.148;2023-05-14T12:49:46;12.40;;;11.30;;
10605;SDS011;5350;42.698;23.148;2023-05-14T12:52:12;11.03;;;10.00;;
10605;SDS011;5350;42.698;23.148;2023-05-14T12:54:39;13.47;;;9.67;;
10605;SDS011;5350;42.698;23.148;2023-05-14T12:57:07;16.23;;;11.37;;
10605;SDS011;5350;42.698;23.148;2023-05-14T12:59:34;16.03;;;14.43;;
10605;SDS011;5350;42.698;23.148;2023-05-14T13:02:00;16.17;;;13.83;;
10605;SDS011;5350;42.698;23.148;2023-05-14T13:04:28;12.97;;;11.73;;
10605;SDS011;5350;42.698;23.148;2023-05-14T13:06:55;10.37;;;9.40;;
10605;SDS011;5350;42.698;23.148;2023-05-14T13:09:22;12.87;;;11.70;;
10605;SDS011;5350;42.698;23.148;2023-05-14T13:11:49;9.97;;;9.10;;
10605;SDS011;5350;42.698;23.148;2023-05-14T13:14:16;9.20;;;8.40;;
10605;SDS011;5350;42.698;23.148;2023-05-14T13:16:42;9.43;;;8.53;;
10605;SDS011;5350;42.698;23.148;2023-05-14T13:19:09;10.23;;;9.47;;
10605;SDS011;5350;42.698;23.148;2023-05-14T13:21:37;9.10;;;8.30;;
10605;SDS011;5350;42.698;23.148;2023-05-14T13:24:04;9.23;;;8.53;;
10605;SDS011;5350;42.698;23.148;2023-05-14T13:26:31;8.70;;;7.90;;
10605;SDS011;5350;42.698;23.148;2023-05-14T13:28:58;9.53;;;8.67;;
10605;SDS011;5350;42.698;23.148;2023-05-14T13:31:24;9.73;;;8.57;;
10605;SDS011;5350;42.698;23.148;2023-05-14T13:33:51;9.47;;;8.57;;
10605;SDS011;5350;42.698;23.148;2023-05-14T13:36:18;8.00;;;7.40;;
10605;SDS011;5350;42.698;23.148;2023-05-14T13:38:46;8.65;;;7.75;;
10605;SDS011;5350;42.698;23.148;2023-05-14T13:41:13;10.93;;;9.20;;
10605;SDS011;5350;42.698;23.148;2023-05-14T13:43:39;10.77;;;8.20;;
10605;SDS011;5350;42.698;23.148;2023-05-14T13:46:06;11.37;;;10.03;;
10605;SDS011;5350;42.698;23.148;2023-05-14T13:48:33;10.40;;;9.40;;
10605;SDS011;5350;42.698;23.148;2023-05-14T13:51:01;10.53;;;9.53;;
10605;SDS011;5350;42.698;23.148;2023-05-14T13:53:28;11.23;;;10.13;;
10605;SDS011;5350;42.698;23.148;2023-05-14T13:55:56;14.80;;;10.30;;
10605;SDS011;5350;42.698;23.148;2023-05-14T13:58:25;11.03;;;10.07;;
10605;SDS011;5350;42.698;23.148;2023-05-14T14:00:52;12.23;;;11.03;;
10605;SDS011;5350;42.698;23.148;2023-05-14T14:03:20;13.68;;;12.27;;
10605;SDS011;5350;42.698;23.148;2023-05-14T14:05:47;11.60;;;10.20;;
10605;SDS011;5350;42.698;23.148;2023-05-14T14:08:14;11.60;;;10.50;;
10605;SDS011;5350;42.698;23.148;2023-05-14T14:10:41;12.00;;;10.87;;
10605;SDS011;5350;42.698;23.148;2023-05-14T14:13:09;11.87;;;10.67;;
10605;SDS011;5350;42.698;23.148;2023-05-14T14:15:35;15.13;;;13.63;;
10605;SDS011;5350;42.698;23.148;2023-05-14T14:18:02;21.93;;;17.90;;
10605;SDS011;5350;42.698;23.148;2023-05-14T14:20:29;16.00;;;14.38;;
10605;SDS011;5350;42.698;23.148;2023-05-14T14:22:56;13.40;;;12.00;;
10605;SDS011;5350;42.698;23.148;2023-05-14T14:25:23;14.57;;;13.17;;
10605;SDS011;5350;42.698;23.148;2023-05-14T14:27:50;12.63;;;11.43;;
10605;SDS011;5350;42.698;23.148;2023-05-14T14:30:18;16.90;;;15.10;;
10605;SDS011;5350;42.698;23.148;2023-05-14T14:32:45;15.93;;;13.70;;
10605;SDS011;5350;42.698;23.148;2023-05-14T14:35:13;13.50;;;12.17;;
10605;SDS011;5350;42.698;23.148;2023-05-14T14:37:41;14.50;;;12.97;;
10605;SDS011;5350;42.698;23.148;2023-05-14T14:40:13;17.87;;;15.97;;